Licenciado Gustavo Díaz Ordaz International Airport
MMPR : now visible

Airfield :











YOU CAN JOIN US ON...

 
LOGIN :

Register | Disclaimer

   EN    FR    IT 

 









Legend :    VFR   Marginal VFR   IFR   Intensive IFR   Very Intensive IFR
Visi :
Ceiling :
>= 8 km
>= 3000ft
5 to 8 km
1000 to 3000 ft
1500m to 5 km
500 to 1000 ft
800 to 1500m
200 to 500 ft
< 800m
< 200 ft
Symbols :   Thunderstorms  Fog  Heavy snow  Heavy precipitations  Wind > 20 kt







- Airport Elevation : 23 ft
- IATA code : PVR


MMPR - Licenciado Gustavo Díaz Ordaz International

CURRENT METAR :
  • 181346Z 00000KT 12SM SCT030 BKN100 OVC250 27/23 A2993 RMK 8/577

EXPIRED METARs :
  • 181248Z 00000KT 12SM SCT030 BKN100 OVC250 26/23 A2992 RMK 8/577
  • 181151Z 00000KT 12SM BKN020 BKN250 OVC250 26/23 A2990 RMK SLP123 52002 916 8/577

TAF TAF MMPR
Valid from the 18 at 12:00 until the 19 at 18:00 UTC


181125Z 1812/1918 03005KT P6SM SCT020 BKN250 TX31/1818Z TN26/1812Z
FM181600 20010KT P6SM SCT100
PROB40 1823/1903 2SM TSRA BKN015CB
FM190300 03005KT P6SM SCT020 BKN100
FM191600 20010KT P6SM SCT020 BKN250
MMFR FIR / North America



MET'MAP, your aeronautical weather chart ! - Copyright ORBIFLY December 2007 - Disclaimer

ORBIFLY MET'MAP TEAM :

Programming & Development : Alexandra Zaïnal
Concept & Development : Baudouin d'Aumeries
Co-Development & Prog : Marc-Olivier Méhu
Technical & hardware support : Manuel Goepfert

Contact : metmap@orbifly.com




SOURCES & CREDITS :

   NOAA       Earth
Advisory